Terminal Aerodrome Forecast
Issued by NWS

Home | Current Version | Previous Version | Text Only | Print | Product List | Glossary Off
Versions: 1 2 3 4 5 6 7 8 9 10 11 12 13 14 15 16 17 18 19 20 21 22 23 24

000
FTUS42 KMHX 171000 AAC
TAFPGV
TAF AMD
KPGV 171052Z 1711/1806 03005KT P6SM SCT030 SCT040 OVC070
     FM171300 05005KT P6SM VCSH OVC050
     FM171900 07005KT P6SM VCSH BKN050
      AMD LTD TO CLD VIS AND WIND=

USA.gov is the U.S. government's official web portal to all federal, state and local government web resources and services.